createdAt,value
2023-05-24T00:01:42.353Z,9.30
2023-05-24T00:04:11.277Z,9.40
2023-05-24T00:06:40.690Z,9.40
2023-05-24T00:09:09.107Z,9.50
2023-05-24T00:11:37.012Z,9.40
2023-05-24T00:14:05.312Z,9.40
2023-05-24T00:16:33.657Z,9.40
2023-05-24T00:19:02.196Z,9.40
2023-05-24T00:21:30.786Z,9.40
2023-05-24T00:24:00.314Z,9.40
2023-05-24T00:26:28.402Z,9.40
2023-05-24T00:28:56.251Z,9.40
2023-05-24T00:31:24.536Z,9.40
2023-05-24T00:33:52.553Z,9.40
2023-05-24T00:36:20.949Z,9.40
2023-05-24T00:38:49.037Z,9.30
2023-05-24T00:41:18.563Z,9.40
2023-05-24T00:43:46.681Z,9.50
2023-05-24T00:46:17.913Z,9.40
2023-05-24T00:48:47.065Z,9.40
2023-05-24T00:51:15.648Z,9.40
2023-05-24T00:53:47.966Z,9.30
2023-05-24T00:56:16.778Z,9.40
2023-05-24T00:58:46.601Z,9.30
2023-05-24T01:01:15.221Z,9.30
2023-05-24T01:03:43.567Z,9.30
2023-05-24T01:06:16.196Z,9.30
2023-05-24T01:08:54.910Z,9.30
2023-05-24T01:11:30.181Z,9.30
2023-05-24T01:14:10.763Z,9.30
2023-05-24T01:16:46.575Z,9.30
2023-05-24T01:19:36.764Z,9.20
2023-05-24T01:22:14.909Z,9.30
2023-05-24T01:24:51.441Z,9.30
2023-05-24T01:27:23.834Z,9.40
2023-05-24T01:29:54.243Z,9.40
2023-05-24T01:32:22.273Z,9.50
2023-05-24T01:34:50.212Z,9.40
2023-05-24T01:37:18.401Z,9.40
2023-05-24T01:39:46.850Z,9.50
2023-05-24T01:42:28.168Z,9.50
2023-05-24T01:45:06.999Z,9.50
2023-05-24T01:47:43.586Z,9.50
2023-05-24T01:50:19.736Z,9.50
2023-05-24T01:52:49.827Z,9.50
2023-05-24T01:55:19.447Z,9.50
2023-05-24T01:57:51.704Z,9.50
2023-05-24T02:00:21.082Z,9.50
2023-05-24T02:02:49.749Z,9.50
2023-05-24T02:05:17.941Z,9.60
2023-05-24T02:07:46.204Z,9.60
2023-05-24T02:10:14.573Z,9.60
2023-05-24T02:12:42.671Z,9.50
2023-05-24T02:15:14.845Z,9.50
2023-05-24T02:17:43.296Z,9.60
2023-05-24T02:20:13.357Z,9.50
2023-05-24T02:22:41.587Z,9.50
2023-05-24T02:25:10.043Z,9.50
2023-05-24T02:27:38.129Z,9.60
2023-05-24T02:30:07.406Z,9.60
2023-05-24T02:32:37.175Z,9.70
2023-05-24T02:35:05.785Z,9.60
2023-05-24T02:37:33.695Z,9.60
2023-05-24T02:40:01.673Z,9.50
2023-05-24T02:42:29.630Z,9.50
2023-05-24T02:44:57.511Z,9.50
2023-05-24T02:47:26.763Z,9.50
2023-05-24T02:49:56.217Z,9.50
2023-05-24T02:52:24.272Z,9.50
2023-05-24T02:54:52.216Z,9.50
2023-05-24T02:57:20.213Z,9.50
2023-05-24T02:59:48.159Z,9.50
2023-05-24T03:02:16.145Z,9.50
2023-05-24T03:04:44.030Z,9.50
2023-05-24T03:07:14.217Z,9.40
2023-05-24T03:09:42.148Z,9.40
2023-05-24T03:12:10.413Z,9.40
2023-05-24T03:14:38.279Z,9.30
2023-05-24T03:17:06.593Z,9.30
2023-05-24T03:19:34.764Z,9.30
2023-05-24T03:22:09.916Z,9.30
2023-05-24T03:24:40.134Z,9.40
2023-05-24T03:27:08.733Z,9.40
2023-05-24T03:29:37.140Z,9.30
2023-05-24T03:32:05.573Z,9.40
2023-05-24T03:34:33.562Z,9.40
2023-05-24T03:37:01.509Z,9.50
2023-05-24T03:39:29.440Z,9.50
2023-05-24T03:41:58.728Z,9.40
2023-05-24T03:44:27.634Z,9.50
2023-05-24T03:46:55.639Z,9.50
2023-05-24T03:49:23.578Z,9.50
2023-05-24T03:51:51.540Z,9.60
2023-05-24T03:54:19.711Z,9.60
2023-05-24T03:56:47.566Z,9.60
2023-05-24T03:59:16.940Z,9.50
2023-05-24T04:01:44.944Z,9.40
2023-05-24T04:04:12.880Z,9.40
2023-05-24T04:06:41.894Z,9.40
2023-05-24T04:09:10.198Z,9.30
2023-05-24T04:11:38.152Z,9.30
2023-05-24T04:14:06.359Z,9.30
2023-05-24T04:16:35.636Z,9.40
2023-05-24T04:19:04.347Z,9.40
2023-05-24T04:21:33.343Z,9.40
2023-05-24T04:24:01.670Z,9.30
2023-05-24T04:26:29.889Z,9.30
2023-05-24T04:28:58.253Z,9.30
2023-05-24T04:31:26.395Z,9.30
2023-05-24T04:33:56.028Z,9.40
2023-05-24T04:36:25.180Z,9.50
2023-05-24T04:38:56.144Z,9.50
2023-05-24T04:41:24.467Z,9.40
2023-05-24T04:43:53.423Z,9.40
2023-05-24T04:46:21.479Z,9.30
2023-05-24T04:48:49.433Z,9.40
2023-05-24T04:51:18.750Z,9.40
2023-05-24T04:53:46.723Z,9.40
2023-05-24T04:56:15.067Z,9.40
2023-05-24T04:58:42.922Z,9.40
2023-05-24T05:01:10.973Z,9.30
2023-05-24T05:03:39.020Z,9.40
2023-05-24T05:06:07.285Z,9.40
2023-05-24T05:08:36.586Z,9.40
2023-05-24T05:11:04.646Z,9.30
2023-05-24T05:13:32.535Z,9.40
2023-05-24T05:16:00.447Z,9.40
2023-05-24T05:18:28.448Z,9.50
2023-05-24T05:20:56.297Z,9.40
2023-05-24T05:23:24.198Z,9.40
2023-05-24T05:25:53.507Z,9.50
2023-05-24T05:28:21.436Z,9.50
2023-05-24T05:30:49.345Z,9.50
2023-05-24T05:33:17.274Z,9.40
2023-05-24T05:35:45.285Z,9.40
2023-05-24T05:38:13.331Z,9.40
2023-05-24T05:40:41.460Z,9.40
2023-05-24T05:43:10.932Z,9.50
2023-05-24T05:45:38.804Z,9.50
2023-05-24T05:48:06.975Z,9.60
2023-05-24T05:50:34.906Z,9.50
2023-05-24T05:53:03.000Z,9.50
2023-05-24T05:55:30.930Z,9.60
2023-05-24T05:57:58.911Z,9.70
2023-05-24T06:00:28.308Z,9.80
2023-05-24T06:02:56.543Z,9.80
2023-05-24T06:05:24.572Z,9.70
2023-05-24T06:07:52.856Z,9.80
2023-05-24T06:10:20.786Z,9.70
2023-05-24T06:12:48.790Z,9.70
2023-05-24T06:15:16.860Z,9.70
2023-05-24T06:17:48.055Z,9.70
2023-05-24T06:20:17.116Z,9.70
2023-05-24T06:22:45.745Z,9.60
2023-05-24T06:25:15.467Z,9.70
2023-05-24T06:27:43.598Z,9.70
2023-05-24T06:30:12.932Z,9.70
2023-05-24T06:32:41.235Z,9.80
2023-05-24T06:35:11.351Z,9.90
2023-05-24T06:37:39.981Z,9.90
2023-05-24T06:40:09.594Z,9.80
2023-05-24T06:42:38.034Z,9.90
2023-05-24T06:45:08.412Z,10.00
2023-05-24T06:47:37.046Z,10.10
2023-05-24T06:50:07.271Z,10.30
2023-05-24T06:52:36.641Z,10.30
2023-05-24T06:55:04.952Z,10.40
2023-05-24T06:57:32.938Z,10.40
2023-05-24T07:00:00.947Z,10.50
2023-05-24T07:02:29.061Z,10.40
2023-05-24T07:04:57.331Z,10.50
2023-05-24T07:07:25.621Z,10.60
2023-05-24T07:09:55.491Z,10.60
2023-05-24T07:12:23.633Z,10.80
2023-05-24T07:14:51.850Z,10.90
2023-05-24T07:17:19.805Z,10.90
2023-05-24T07:19:47.716Z,11.00
2023-05-24T07:22:16.018Z,11.00
2023-05-24T07:24:44.033Z,10.80
2023-05-24T07:27:13.688Z,10.90
2023-05-24T07:29:41.811Z,10.90
2023-05-24T07:32:09.999Z,10.90
2023-05-24T07:34:39.797Z,10.80
2023-05-24T07:37:07.848Z,10.80
2023-05-24T07:39:35.768Z,10.90
2023-05-24T07:42:03.739Z,11.00
2023-05-24T07:44:33.078Z,11.10
2023-05-24T07:47:02.467Z,11.00
2023-05-24T07:49:30.404Z,10.90
2023-05-24T07:51:59.573Z,11.00
2023-05-24T07:54:27.679Z,11.20
2023-05-24T07:56:57.377Z,11.30
2023-05-24T07:59:25.357Z,11.40
2023-05-24T08:01:54.662Z,11.40
2023-05-24T08:04:22.765Z,11.40
2023-05-24T08:06:50.748Z,11.40
2023-05-24T08:09:18.832Z,11.30
2023-05-24T08:11:46.750Z,11.40
2023-05-24T08:14:14.836Z,11.50
2023-05-24T08:16:42.921Z,11.60
2023-05-24T08:19:12.290Z,11.70
2023-05-24T08:21:41.990Z,11.90
2023-05-24T08:24:10.010Z,11.90
2023-05-24T08:26:38.146Z,11.60
2023-05-24T08:29:06.229Z,11.60
2023-05-24T08:31:34.305Z,11.80
2023-05-24T08:34:02.690Z,11.80
2023-05-24T08:36:32.900Z,11.90
2023-05-24T08:39:00.886Z,12.00
2023-05-24T08:41:30.023Z,12.10
2023-05-24T08:44:01.549Z,12.10
2023-05-24T08:46:30.540Z,12.30
2023-05-24T08:48:59.775Z,12.40
2023-05-24T08:51:29.170Z,12.60
2023-05-24T08:53:59.958Z,12.60
2023-05-24T08:56:28.864Z,12.60
2023-05-24T08:58:57.218Z,12.50
2023-05-24T09:01:28.961Z,12.40
2023-05-24T09:04:00.258Z,12.30
2023-05-24T09:06:28.216Z,12.00
2023-05-24T09:09:00.064Z,11.90
2023-05-24T09:11:29.527Z,11.80
2023-05-24T09:13:58.155Z,11.80
2023-05-24T09:16:26.740Z,11.80
2023-05-24T09:18:54.713Z,11.80
2023-05-24T09:21:23.364Z,12.00
2023-05-24T09:23:51.533Z,12.30
2023-05-24T09:26:21.503Z,12.40
2023-05-24T09:28:51.383Z,12.70
2023-05-24T09:31:19.614Z,13.00
2023-05-24T09:33:50.868Z,13.20
2023-05-24T09:36:18.964Z,13.30
2023-05-24T09:38:46.916Z,13.40
2023-05-24T09:41:14.897Z,13.30
2023-05-24T09:43:50.888Z,13.20
2023-05-24T09:46:19.966Z,13.30
2023-05-24T09:48:58.676Z,13.40
2023-05-24T09:51:27.763Z,13.40
2023-05-24T09:53:59.106Z,13.40
2023-05-24T09:56:28.123Z,13.30
2023-05-24T09:58:58.107Z,13.10
2023-05-24T10:01:26.963Z,13.00
2023-05-24T10:03:55.563Z,12.90
2023-05-24T10:06:24.024Z,12.90
2023-05-24T10:08:54.555Z,12.80
2023-05-24T10:11:23.011Z,12.80
2023-05-24T10:13:51.230Z,12.90
2023-05-24T10:16:20.641Z,13.00
2023-05-24T10:18:48.673Z,13.00
2023-05-24T10:21:17.062Z,13.00
2023-05-24T10:23:46.346Z,13.00
2023-05-24T10:26:16.434Z,13.10
2023-05-24T10:28:48.810Z,13.00
2023-05-24T10:31:23.666Z,13.00
2023-05-24T10:33:52.226Z,13.00
2023-05-24T10:36:20.954Z,13.00
2023-05-24T10:38:49.178Z,12.80
2023-05-24T10:41:19.285Z,12.80
2023-05-24T10:44:00.665Z,12.80
2023-05-24T10:46:38.359Z,12.90
2023-05-24T10:49:07.627Z,12.90
2023-05-24T10:51:38.977Z,13.10
2023-05-24T10:54:17.799Z,13.20
2023-05-24T10:56:47.925Z,13.40
2023-05-24T10:59:25.236Z,13.60
2023-05-24T11:01:59.277Z,13.50
2023-05-24T11:04:29.511Z,13.40
2023-05-24T11:07:00.429Z,13.50
2023-05-24T11:09:28.688Z,13.60
2023-05-24T11:11:58.423Z,13.30
2023-05-24T11:14:29.901Z,13.10
2023-05-24T11:17:01.249Z,13.10
2023-05-24T11:19:35.210Z,13.10
2023-05-24T11:22:05.269Z,13.20
2023-05-24T11:24:34.444Z,13.20
2023-05-24T11:27:03.690Z,13.20
2023-05-24T11:29:31.980Z,13.20
2023-05-24T11:32:05.269Z,13.20
2023-05-24T11:34:33.832Z,13.30
2023-05-24T11:37:03.056Z,13.50
2023-05-24T11:39:31.930Z,13.40
2023-05-24T11:42:00.127Z,13.50
2023-05-24T11:44:31.640Z,13.60
2023-05-24T11:47:01.898Z,13.70
2023-05-24T11:49:29.969Z,13.80
2023-05-24T11:51:59.191Z,14.00
2023-05-24T11:54:28.609Z,13.90
2023-05-24T11:56:57.412Z,14.00
2023-05-24T11:59:26.852Z,14.20
2023-05-24T12:02:04.728Z,14.50
2023-05-24T12:04:34.596Z,14.60
2023-05-24T12:07:03.398Z,14.50
2023-05-24T12:09:31.566Z,14.60
2023-05-24T12:11:59.611Z,14.60
2023-05-24T12:14:32.081Z,14.70
2023-05-24T12:17:01.912Z,14.90
2023-05-24T12:19:34.815Z,15.00
2023-05-24T12:22:06.726Z,15.20
2023-05-24T12:24:35.578Z,15.30
2023-05-24T12:27:07.422Z,14.90
2023-05-24T12:29:37.858Z,15.10
2023-05-24T12:32:12.467Z,15.30
2023-05-24T12:34:42.234Z,15.50
2023-05-24T12:37:11.138Z,15.50
2023-05-24T12:39:39.854Z,15.50
2023-05-24T12:42:08.938Z,15.70
2023-05-24T12:44:38.404Z,15.80
2023-05-24T12:47:09.235Z,16.00
2023-05-24T12:49:37.704Z,16.00
2023-05-24T12:52:06.623Z,16.10
2023-05-24T12:54:35.117Z,16.00
2023-05-24T12:57:03.804Z,15.80
2023-05-24T12:59:32.230Z,15.90
2023-05-24T13:02:00.437Z,16.00
2023-05-24T13:04:31.861Z,16.00
2023-05-24T13:07:00.477Z,16.00
2023-05-24T13:09:28.803Z,15.90
2023-05-24T13:11:56.862Z,15.80
2023-05-24T13:14:24.930Z,15.90
2023-05-24T13:16:53.160Z,16.00
2023-05-24T13:19:21.760Z,15.70
2023-05-24T13:21:51.133Z,15.80
2023-05-24T13:24:20.270Z,16.00
2023-05-24T13:26:48.349Z,16.10
2023-05-24T13:31:47.482Z,15.80
2023-05-24T13:34:15.526Z,15.60
2023-05-24T13:36:43.897Z,15.30
2023-05-24T13:39:16.063Z,15.00
2023-05-24T13:41:45.470Z,14.70
2023-05-24T13:44:14.077Z,14.60
2023-05-24T13:46:42.829Z,14.60
2023-05-24T13:49:12.333Z,14.70
2023-05-24T13:51:40.891Z,14.50
2023-05-24T13:54:08.959Z,14.50
2023-05-24T13:56:39.789Z,14.60
2023-05-24T13:59:08.537Z,14.60
2023-05-24T14:01:38.132Z,14.90
2023-05-24T14:04:07.207Z,14.80
2023-05-24T14:06:37.558Z,15.00
2023-05-24T14:09:08.160Z,15.20
2023-05-24T14:11:36.236Z,15.40
2023-05-24T14:16:37.019Z,15.60
2023-05-24T14:19:05.593Z,15.40
2023-05-24T14:21:33.773Z,15.50
2023-05-24T14:24:01.882Z,15.60
2023-05-24T14:26:29.866Z,15.80
2023-05-24T14:28:58.582Z,15.90
2023-05-24T14:31:28.222Z,16.10
2023-05-24T14:33:56.168Z,16.30
2023-05-24T14:36:24.204Z,16.30
2023-05-24T14:38:52.180Z,16.10
2023-05-24T14:41:20.287Z,16.20
2023-05-24T14:43:48.227Z,16.10
2023-05-24T14:46:16.343Z,16.00
2023-05-24T14:48:46.471Z,16.10
2023-05-24T14:51:14.511Z,16.10
2023-05-24T14:53:42.436Z,16.10
2023-05-24T14:56:10.638Z,16.30
2023-05-24T14:58:38.662Z,16.00
2023-05-24T15:01:08.174Z,16.00
2023-05-24T15:03:36.694Z,16.00
2023-05-24T15:06:06.425Z,16.00
2023-05-24T15:08:35.182Z,15.90
2023-05-24T15:11:03.164Z,15.80
2023-05-24T15:13:31.205Z,15.60
2023-05-24T15:16:00.530Z,15.70
2023-05-24T15:18:29.050Z,15.90
2023-05-24T15:20:57.262Z,15.90
2023-05-24T15:23:27.002Z,16.00
2023-05-24T15:25:55.073Z,16.00
2023-05-24T15:28:26.043Z,16.10
2023-05-24T15:30:54.540Z,16.30
2023-05-24T15:33:22.838Z,16.50
2023-05-24T15:35:50.965Z,16.60
2023-05-24T15:38:19.285Z,16.40
2023-05-24T15:40:48.782Z,16.20
2023-05-24T15:43:18.951Z,16.00
2023-05-24T15:45:48.331Z,15.90
2023-05-24T15:48:16.380Z,16.00
2023-05-24T15:51:04.217Z,15.80
2023-05-24T15:53:32.772Z,15.80
2023-05-24T15:56:02.273Z,15.90
2023-05-24T15:58:30.282Z,15.70
2023-05-24T16:00:58.253Z,15.60
2023-05-24T16:03:26.645Z,15.60
2023-05-24T16:05:54.761Z,15.30
2023-05-24T16:08:27.670Z,15.40
2023-05-24T16:10:56.011Z,15.50
2023-05-24T16:13:25.695Z,15.50
2023-05-24T16:15:53.749Z,15.40
2023-05-24T16:18:22.772Z,15.30
2023-05-24T16:20:51.701Z,15.10
2023-05-24T16:23:20.305Z,14.90
2023-05-24T16:25:48.302Z,14.80
2023-05-24T16:28:16.475Z,14.70
2023-05-24T16:30:45.858Z,14.80
2023-05-24T16:33:14.047Z,15.00
2023-05-24T16:35:42.025Z,15.00
2023-05-24T16:38:10.064Z,15.00
2023-05-24T16:40:38.001Z,15.10
2023-05-24T16:43:06.140Z,15.20
2023-05-24T16:45:34.130Z,15.20
2023-05-24T16:48:03.750Z,15.40
2023-05-24T16:50:31.866Z,15.40
2023-05-24T16:52:59.844Z,15.30
2023-05-24T16:55:27.878Z,15.20
2023-05-24T16:57:55.922Z,15.20
2023-05-24T17:00:24.060Z,15.20
2023-05-24T17:02:52.076Z,15.20
2023-05-24T17:05:21.677Z,15.20
2023-05-24T17:07:49.579Z,15.10
2023-05-24T17:10:17.633Z,15.00
2023-05-24T17:12:47.369Z,15.00
2023-05-24T17:15:15.390Z,14.90
2023-05-24T17:17:43.600Z,14.80
2023-05-24T17:20:12.221Z,14.70
2023-05-24T17:22:41.702Z,14.60
2023-05-24T17:25:10.502Z,14.60
2023-05-24T17:27:38.398Z,14.60
2023-05-24T17:30:07.585Z,14.60
2023-05-24T17:32:35.592Z,14.60
2023-05-24T17:35:03.804Z,14.50
2023-05-24T17:37:32.103Z,14.40
2023-05-24T17:40:01.632Z,14.30
2023-05-24T17:42:29.635Z,14.30
2023-05-24T17:44:57.644Z,14.40
2023-05-24T17:47:26.123Z,14.40
2023-05-24T17:49:54.199Z,14.40
2023-05-24T17:52:22.166Z,14.30
2023-05-24T17:54:50.360Z,14.30
2023-05-24T17:57:19.673Z,14.20
2023-05-24T17:59:47.757Z,14.20
2023-05-24T18:02:15.692Z,14.10
2023-05-24T18:04:43.624Z,14.00
2023-05-24T18:07:11.584Z,13.90
2023-05-24T18:09:39.592Z,13.80
2023-05-24T18:12:07.761Z,13.60
2023-05-24T18:14:37.101Z,13.60
2023-05-24T18:17:05.601Z,13.60
2023-05-24T18:19:33.640Z,13.50
2023-05-24T18:22:01.628Z,13.40
2023-05-24T18:24:29.592Z,13.30
2023-05-24T18:26:57.552Z,13.20
2023-05-24T18:29:26.046Z,13.10
2023-05-24T18:31:55.389Z,13.00
2023-05-24T18:34:23.613Z,12.90
2023-05-24T18:36:52.474Z,12.70
2023-05-24T18:39:20.432Z,12.50
2023-05-24T18:41:48.650Z,12.30
2023-05-24T18:44:16.717Z,12.20
2023-05-24T18:46:44.787Z,12.10
2023-05-24T18:49:17.722Z,11.90
2023-05-24T18:51:45.669Z,11.70
2023-05-24T18:54:13.895Z,11.60
2023-05-24T18:56:41.945Z,11.40
2023-05-24T18:59:11.740Z,11.30
2023-05-24T19:01:40.495Z,11.20
2023-05-24T19:04:08.480Z,11.10
2023-05-24T19:06:37.802Z,10.90
2023-05-24T19:09:05.829Z,10.80
2023-05-24T19:11:33.861Z,10.70
2023-05-24T19:14:01.783Z,10.50
2023-05-24T19:16:29.778Z,10.40
2023-05-24T19:18:59.824Z,10.30
2023-05-24T19:21:28.726Z,10.20
2023-05-24T19:23:58.148Z,10.10
2023-05-24T19:26:26.349Z,10.00
2023-05-24T19:28:54.292Z,9.90
2023-05-24T19:31:27.924Z,9.80
2023-05-24T19:34:00.593Z,9.70
2023-05-24T19:36:30.423Z,9.60
2023-05-24T19:38:59.930Z,9.50
2023-05-24T19:41:27.952Z,9.40
2023-05-24T19:43:58.495Z,9.30
2023-05-24T19:46:26.835Z,9.20
2023-05-24T19:48:57.239Z,9.10
2023-05-24T19:51:25.835Z,9.10
2023-05-24T19:53:54.046Z,9.00
2023-05-24T19:56:23.787Z,8.90
2023-05-24T19:58:52.261Z,8.80
2023-05-24T20:01:20.277Z,8.80
2023-05-24T20:03:49.284Z,8.70
2023-05-24T20:06:17.939Z,8.60
2023-05-24T20:08:46.768Z,8.50
2023-05-24T20:11:14.755Z,8.50
2023-05-24T20:13:44.119Z,8.40
2023-05-24T20:16:12.126Z,8.50
2023-05-24T20:18:40.120Z,8.40
2023-05-24T20:21:08.066Z,8.30
2023-05-24T20:23:36.254Z,8.30
2023-05-24T20:26:04.210Z,8.20
2023-05-24T20:28:32.318Z,8.20
2023-05-24T20:31:01.735Z,8.10
2023-05-24T20:33:29.826Z,8.10
2023-05-24T20:35:59.036Z,8.00
2023-05-24T20:38:26.951Z,7.90
2023-05-24T20:40:55.286Z,7.90
2023-05-24T20:43:23.258Z,7.90
2023-05-24T20:45:51.253Z,7.90
2023-05-24T20:48:21.139Z,7.90
2023-05-24T20:50:49.198Z,7.80
2023-05-24T20:53:17.380Z,7.80
2023-05-24T20:55:45.732Z,7.70
2023-05-24T20:58:15.164Z,7.60
2023-05-24T21:00:43.321Z,7.60
2023-05-24T21:03:11.537Z,7.60
2023-05-24T21:05:40.946Z,7.50
2023-05-24T21:08:08.918Z,7.50
2023-05-24T21:10:38.143Z,7.40
2023-05-24T21:13:06.466Z,7.30
2023-05-24T21:15:34.555Z,7.30
2023-05-24T21:18:02.615Z,7.30
2023-05-24T21:20:30.576Z,7.30
2023-05-24T21:23:00.153Z,7.30
2023-05-24T21:25:28.165Z,7.20
2023-05-24T21:27:56.196Z,7.20
2023-05-24T21:30:24.431Z,7.10
2023-05-24T21:32:52.391Z,7.10
2023-05-24T21:35:20.540Z,7.10
2023-05-24T21:37:48.521Z,7.00
2023-05-24T21:40:17.946Z,7.00
2023-05-24T21:42:45.902Z,7.00
2023-05-24T21:45:14.276Z,6.90
2023-05-24T21:47:42.751Z,6.90
2023-05-24T21:50:11.640Z,6.90
2023-05-24T21:52:39.582Z,6.90
2023-05-24T21:55:08.224Z,6.80
2023-05-24T21:57:37.494Z,6.80
2023-05-24T22:00:06.308Z,6.80
2023-05-24T22:02:34.538Z,6.70
2023-05-24T22:05:05.241Z,6.70
2023-05-24T22:07:33.646Z,6.70
2023-05-24T22:10:01.670Z,6.70
2023-05-24T22:12:29.856Z,6.60
2023-05-24T22:15:00.208Z,6.60
2023-05-24T22:17:29.219Z,6.60
2023-05-24T22:19:57.414Z,6.50
2023-05-24T22:22:25.405Z,6.50
2023-05-24T22:24:53.553Z,6.40
2023-05-24T22:27:22.058Z,6.40
2023-05-24T22:29:49.968Z,6.40
2023-05-24T22:32:19.583Z,6.40
2023-05-24T22:34:47.497Z,6.40
2023-05-24T22:37:16.714Z,6.40
2023-05-24T22:39:45.978Z,6.40
2023-05-24T22:42:13.943Z,6.40
2023-05-24T22:44:42.048Z,6.30
2023-05-24T22:47:13.992Z,6.30
2023-05-24T22:49:43.323Z,6.30
2023-05-24T22:52:12.564Z,6.30
2023-05-24T22:54:40.604Z,6.20
2023-05-24T22:57:08.655Z,6.20
2023-05-24T22:59:36.726Z,6.20
2023-05-24T23:02:04.911Z,6.20
2023-05-24T23:04:33.556Z,6.20
2023-05-24T23:07:02.952Z,6.10
2023-05-24T23:09:34.620Z,6.10
2023-05-24T23:12:07.576Z,6.10
2023-05-24T23:14:38.350Z,6.00
2023-05-24T23:17:06.711Z,6.00
2023-05-24T23:19:34.948Z,6.00
2023-05-24T23:22:04.482Z,5.90
2023-05-24T23:24:34.361Z,6.00
2023-05-24T23:27:02.444Z,5.90
2023-05-24T23:29:30.383Z,5.90
2023-05-24T23:31:58.493Z,5.80
2023-05-24T23:34:26.496Z,5.90
2023-05-24T23:36:54.834Z,5.80
2023-05-24T23:39:24.170Z,5.80
2023-05-24T23:41:52.203Z,5.80
2023-05-24T23:44:23.535Z,5.70
2023-05-24T23:46:51.742Z,5.80
2023-05-24T23:49:20.016Z,5.70
2023-05-24T23:51:48.112Z,5.70
2023-05-24T23:54:16.162Z,5.70
2023-05-24T23:56:45.543Z,5.80
2023-05-24T23:59:13.608Z,5.80
